Map

Track Data

SID SEASON NUMBER BASIN SUBBASIN NAME ISO_TIME NATURE LAT LON WMO_WIND WMO_PRES WMO_AGENCY TRACK_TYPE DIST2LAND LANDFALL IFLAG USA_AGENCY USA_ATCF_ID USA_LAT USA_LON USA_RECORD USA_STATUS USA_WIND USA_PRES USA_SSHS USA_R34_NE USA_R34_SE USA_R34_SW USA_R34_NW USA_R50_NE USA_R50_SE USA_R50_SW USA_R50_NW USA_R64_NE USA_R64_SE USA_R64_SW USA_R64_NW USA_POCI USA_ROCI USA_RMW USA_EYE TOKYO_LAT TOKYO_LON TOKYO_GRADE TOKYO_WIND TOKYO_PRES TOKYO_R50_DIR TOKYO_R50_LONG TOKYO_R50_SHORT TOKYO_R30_DIR TOKYO_R30_LONG TOKYO_R30_SHORT TOKYO_LAND CMA_LAT CMA_LON CMA_CAT CMA_WIND CMA_PRES HKO_LAT HKO_LON HKO_CAT HKO_WIND HKO_PRES NEWDELHI_LAT NEWDELHI_LON NEWDELHI_GRADE NEWDELHI_WIND NEWDELHI_PRES NEWDELHI_CI NEWDELHI_DP NEWDELHI_POCI REUNION_LAT REUNION_LON REUNION_TYPE REUNION_WIND REUNION_PRES REUNION_TNUM REUNION_CI REUNION_RMW REUNION_R34_NE REUNION_R34_SE REUNION_R34_SW REUNION_R34_NW REUNION_R50_NE REUNION_R50_SE REUNION_R50_SW REUNION_R50_NW REUNION_R64_NE REUNION_R64_SE REUNION_R64_SW REUNION_R64_NW BOM_LAT BOM_LON BOM_TYPE BOM_WIND BOM_PRES BOM_TNUM BOM_CI BOM_RMW BOM_R34_NE BOM_R34_SE BOM_R34_SW BOM_R34_NW BOM_R50_NE BOM_R50_SE BOM_R50_SW BOM_R50_NW BOM_R64_NE BOM_R64_SE BOM_R64_SW BOM_R64_NW BOM_ROCI BOM_POCI BOM_EYE BOM_POS_METHOD BOM_PRES_METHOD NADI_LAT NADI_LON NADI_CAT NADI_WIND NADI_PRES WELLINGTON_LAT WELLINGTON_LON WELLINGTON_WIND WELLINGTON_PRES DS824_LAT DS824_LON DS824_STAGE DS824_WIND DS824_PRES TD9636_LAT TD9636_LON TD9636_STAGE TD9636_WIND TD9636_PRES TD9635_LAT TD9635_LON TD9635_WIND TD9635_PRES TD9635_ROCI NEUMANN_LAT NEUMANN_LON NEUMANN_CLASS NEUMANN_WIND NEUMANN_PRES MLC_LAT MLC_LON MLC_CLASS MLC_WIND MLC_PRES USA_GUST BOM_GUST BOM_GUST_PER REUNION_GUST REUNION_GUST_PER USA_SEAHGT USA_SEARAD_NE USA_SEARAD_SE USA_SEARAD_SW USA_SEARAD_NW STORM_SPEED STORM_DIR
1876253N39299 1876 16 NA NA NOT_NAMED 1876-09-09 00:00:00 TS 39.0000 -60.8000 80 hurdat_atl main 625 612 O_____________ hurdat_atl AL011876 39.0000 -60.8000 HU 80 1 6 33
1876253N39299 1876 16 NA NA NOT_NAMED 1876-09-09 03:00:00 TS 39.2551 -60.5930 main 608 601 P_____________ AL011876 39.2551 -60.5930 HU 80 1 6 32
1876253N39299 1876 16 NA NA NOT_NAMED 1876-09-09 06:00:00 TS 39.5000 -60.4000 80 hurdat_atl main 601 588 O_____________ hurdat_atl AL011876 39.5000 -60.4000 HU 80 1 6 31
1876253N39299 1876 16 NA NA NOT_NAMED 1876-09-09 09:00:00 TS 39.7348 -60.2219 main 592 570 P_____________ AL011876 39.7348 -60.2219 HU 80 1 6 32
1876253N39299 1876 16 NA NA NOT_NAMED 1876-09-09 12:00:00 TS 40.0000 -60.0000 80 hurdat_atl main 570 546 O_____________ hurdat_atl AL011876 40.0000 -60.0000 HU 80 1 7 34
1876253N39299 1876 16 NA NA NOT_NAMED 1876-09-09 15:00:00 TS 40.3273 -59.6946 main 550 521 P_____________ AL011876 40.3273 -59.6946 HU 80 1 9 37
1876253N39299 1876 16 NA NA NOT_NAMED 1876-09-09 18:00:00 TS 40.7000 -59.3000 80 970 hurdat_atl main 521 489 O_____________ hurdat_atl AL011876 40.7000 -59.3000 HU 80 970 1 10 41
1876253N39299 1876 16 NA NA NOT_NAMED 1876-09-09 21:00:00 TS 41.0850 -58.8296 main 492 465 P_____________ AL011876 41.0850 -58.8296 HU 80 1 11 43
1876253N39299 1876 16 NA NA NOT_NAMED 1876-09-10 00:00:00 TS 41.5000 -58.3000 80 hurdat_atl main 469 447 O_____________ hurdat_atl AL011876 41.5000 -58.3000 HU 80 1 12 42
1876253N39299 1876 16 NA NA NOT_NAMED 1876-09-10 03:00:00 TS 41.9647 -57.7650 main 443 433 P_____________ AL011876 41.9647 -57.7650 HU 80 1 12 42
1876253N39299 1876 16 NA NA NOT_NAMED 1876-09-10 06:00:00 TS 42.4000 -57.2000 80 hurdat_atl main 437 430 O_____________ hurdat_atl AL011876 42.4000 -57.2000 HU 80 1 11 48
1876253N39299 1876 16 NA NA NOT_NAMED 1876-09-10 09:00:00 TS 42.7295 -56.6215 main 441 422 P_____________ AL011876 42.7295 -56.6215 HU 75 1 11 56
1876253N39299 1876 16 NA NA NOT_NAMED 1876-09-10 12:00:00 TS 43.0000 -56.0000 70 hurdat_atl main 422 389 O_____________ hurdat_atl AL011876 43.0000 -56.0000 HU 70 1 11 61
1876253N39299 1876 16 NA NA NOT_NAMED 1876-09-10 15:00:00 TS 43.2648 -55.3146 main 390 353 P_____________ AL011876 43.2648 -55.3146 HU 70 1 11 64
1876253N39299 1876 16 NA NA NOT_NAMED 1876-09-10 18:00:00 TS 43.5000 -54.6000 70 hurdat_atl main 353 323 O_____________ hurdat_atl AL011876 43.5000 -54.6000 HU 70 1 11 66
1876253N39299 1876 16 NA NA NOT_NAMED 1876-09-10 21:00:00 TS 43.7147 -53.8921 main 323 300 P_____________ AL011876 43.7147 -53.8921 HU 65 1 11 68
1876253N39299 1876 16 NA NA NOT_NAMED 1876-09-11 00:00:00 TS 43.9000 -53.2000 60 hurdat_atl main 300 289 O_____________ hurdat_atl AL011876 43.9000 -53.2000 TS 60 0 10 71
1876253N39299 1876 16 NA NA NOT_NAMED 1876-09-11 03:00:00 TS 44.0569 -52.5493 main 283 280 P_____________ AL011876 44.0569 -52.5493 TS 60 0 10 72
1876253N39299 1876 16 NA NA NOT_NAMED 1876-09-11 06:00:00 TS 44.2000 -51.9000 60 hurdat_atl main 285 280 O_____________ hurdat_atl AL011876 44.2000 -51.9000 TS 60 0 10 73
1876253N39299 1876 16 NA NA NOT_NAMED 1876-09-11 09:00:00 TS 44.3338 -51.2511 main 295 293 P_____________ AL011876 44.3338 -51.2511 TS 60 0 10 73
1876253N39299 1876 16 NA NA NOT_NAMED 1876-09-11 12:00:00 ET 44.5000 -50.5000 60 hurdat_atl main 313 313 O_____________ hurdat_atl AL011876 44.5000 -50.5000 EX 60 -4 13 72
1876253N39299 1876 16 NA NA NOT_NAMED 1876-09-11 15:00:00 ET 44.7326 -49.5603 main 349 349 P_____________ AL011876 44.7326 -49.5603 EX 60 -4 15 71
1876253N39299 1876 16 NA NA NOT_NAMED 1876-09-11 18:00:00 ET 45.0000 -48.5000 60 hurdat_atl main 400 O_____________ hurdat_atl AL011876 45.0000 -48.5000 EX 60 -4 16 70

About IBTrACS Database

This database is a web-friendly format of International Best Track Archive for Climate Stewardship (IBTrACS), a global best track data archive curated by NOAA dating back to 1842.

Updated: 2021-11-26